Nearby METAR Reports

 

KTAN - Taunton, Massachusetts, USA
Distance from station: W 5mi, 8km
Updated: 01/20/2017 1:52am
Clear
Clear
 Wind from calm
Wind: Calm
Temperature: 28°F , -2°C
Dew Point: 27°F , -3°C
Humidity: 93%
Barometer: 30.00 inHg , 1015.9 hPa
Clouds: Clear
Visibility: 10 miles , 16 km
2017/01/20 06:52 KTAN 200652Z AUTO 00000KT 10SM CLR M02/M03 A3000 RMK AO2 SLP159 T10171033
KPYM - Plymouth, Massachusetts, USA
Distance from station: ENE 10mi, 16km
Updated: 01/20/2017 1:52am
Mostly cloudy
Mostly cloudy
 Wind from calm
Wind: Calm
Temperature: 32°F , 0°C
Dew Point: 28°F , -2°C
Humidity: 87%
Barometer: 30.00 inHg , 1015.9 hPa
Clouds: Mostly cloudy
Visibility: 10 miles , 16 km
Cloud details: Mostly cloudy 3200 ft
2017/01/20 06:52 KPYM 200652Z AUTO 00000KT 10SM BKN032 00/M02 A3000 RMK AO2 SLP161 T00001022
 
KEWB - New Bedford, Massachusetts, USA
Distance from station: S 14mi, 23km
Updated: 01/20/2017 1:53am
Clear
Clear
 Wind from calm
Wind: Calm
Temperature: 36°F , 2°C
Dew Point: 28°F , -2°C
Humidity: 75%
Barometer: 30.00 inHg , 1015.9 hPa
Clouds: Clear
Visibility: 10 miles , 16 km
2017/01/20 06:53 KEWB 200653Z AUTO 00000KT 10SM CLR 02/M02 A3000 RMK AO2 SLP158 T00171022
KGHG - Marshfield, Massachusetts, USA
Distance from station: NE 20mi, 31km
Updated: 01/20/2017 2:35am
Overcast
Overcast
 Wind from W
Wind: W 3 mph , 6 km/h
Temperature: 36°F , 2°C
Dew Point: 30°F , -1°C
Humidity: 81%
Barometer: 29.99 inHg , 1015.6 hPa
Clouds: Overcast
Visibility: 10 miles , 16 km
Cloud details: Overcast 3200 ft
2017/01/20 07:35 KGHG 200735Z AUTO 28003KT 10SM OVC032 02/M01 A2999 RMK AO2
 
KOWD - Norwood, Massachusetts, USA
Distance from station: NNW 24mi, 39km
Updated: 01/20/2017 1:53am
Clear
Clear
 Wind from calm
Wind: Calm
Temperature: 30°F , -1°C
Dew Point: 27°F , -3°C
Humidity: 86%
Barometer: 30.01 inHg , 1016.3 hPa
Clouds: Clear
Visibility: 10 miles , 16 km
2017/01/20 06:53 KOWD 200653Z AUTO 00000KT 10SM CLR M01/M03 A3001 RMK AO2 SLP161 T10111028
KMQE - East Milton, Massachusetts, USA
Distance from station: NNW 25mi, 40km
Updated: 01/20/2017 1:54am

 Wind from NNW
Wind: NNW 9 mph , 15 km/h
Temperature: 30°F , -1°C
Wind Chill: 22°F , -6°C
Dew Point: 27°F , -3°C
Humidity: 86%
Barometer: 29.97 inHg , 1014.9 hPa
2017/01/20 06:54 KMQE 200654Z AUTO 34008KT M01/M03 A2997 RMK AO1 SLP164 T10061028
 
KFMH - Falmouth/Otis Ab, Massachusetts, USA
Distance from station: SE 27mi, 44km
Updated: 01/20/2017 2:35am
Light Snow
Light Snow
 
Temperature: 32°F , 0°C
Dew Point: 28°F , -2°C
Humidity: 87%
Barometer: 29.99 inHg , 1015.6 hPa
Summary: Light Snow
Visibility: 10 miles , 16 km
2017/01/20 07:35 KFMH 200735Z AUTO 10SM -SN M00/M02 A2999 RMK AO2 FZRANO TSNO
KPVD - Providence/Green, Rhode Island, USA
Distance from station: WSW 29mi, 47km
Updated: 01/20/2017 1:51am
Clear
Clear
 Wind from N
Wind: N 3 mph , 6 km/h
Temperature: 36°F , 2°C
Dew Point: 28°F , -2°C
Humidity: 75%
Barometer: 30.01 inHg , 1016.3 hPa
Clouds: Clear
Visibility: 10 miles , 16 km
2017/01/20 06:51 KPVD 200651Z AUTO 01003KT 10SM CLR 02/M02 A3001 RMK AO2 SLP161 T00221022
 
KSFZ - Pawtucket, Rhode Island, USA
Distance from station: W 30mi, 48km
Updated: 01/20/2017 1:56am
Clear
Clear
 Wind from NNE
Wind: NNE 5 mph , 7 km/h
Temperature: 32°F , 0°C
Wind Chill: 27°F , -3°C
Dew Point: 28°F , -2°C
Humidity: 87%
Barometer: 29.99 inHg , 1015.6 hPa
Clouds: Clear
Visibility: 10 miles , 16 km
2017/01/20 06:56 KSFZ 200656Z AUTO 03004KT 10SM CLR 00/M02 A2999 RMK AO2 SLP177 T00001022 FZRANO
KUUU - Newport, Rhode Island, USA
Distance from station: SW 31mi, 50km
Updated: 01/20/2017 1:53am
Partly cloudy
Partly cloudy
 Wind from NNE
Wind: NNE 3 mph , 6 km/h
Temperature: 37°F , 3°C
Dew Point: 30°F , -1°C
Humidity: 75%
Barometer: 30.00 inHg , 1015.9 hPa
Clouds: Partly cloudy
Visibility: 10 miles , 16 km
Cloud details: Partly cloudy 2900 ft
2017/01/20 06:53 KUUU 200653Z AUTO 02003KT 10SM SCT029 03/M01 A3000 RMK AO2 SLP157 T00331011
 
KOQU - N. Kingston/Quon, Rhode Island, USA
Distance from station: SW 32mi, 52km
Updated: 01/19/2017 10:50pm
NOT Current
Overcast
Overcast
 Wind from N
Wind: N 9 mph , 15 km/h
Temperature: 43°F , 6°C
Wind Chill: 38°F , 3°C
Dew Point: 32°F , 0°C
Humidity: 66%
Barometer: 30.01 inHg , 1016.3 hPa
Clouds: Overcast
Visibility: 10 miles , 16 km
Cloud details: Overcast 3000 ft
2017/01/20 03:50 KOQU 200350Z 01008KT 10SM OVC030 06/00 A3001 RMK LAST
KBOS - Boston, Massachusetts, USA
Distance from station: N 33mi, 54km
Updated: 01/20/2017 1:54am
Partly cloudy
Partly cloudy
 Wind from WNW
Wind: WNW 7 mph , 11 km/h
Temperature: 36°F , 2°C
Wind Chill: 30°F , -1°C
Dew Point: 28°F , -2°C
Humidity: 75%
Barometer: 30.01 inHg , 1016.3 hPa
Clouds: Partly cloudy
Visibility: 10 miles , 16 km
Cloud details: Partly cloudy 3400 ft
2017/01/20 06:54 KBOS 200654Z 30006KT 10SM SCT034 02/M02 A3001 RMK AO2 SLP161 T00221017
 
KHYA - Hyannis, Massachusetts, USA
Distance from station: ESE 37mi, 59km
Updated: 01/20/2017 1:56am
Overcast
Overcast
 Wind from NNW
Wind: NNW 5 mph , 7 km/h
Temperature: 39°F , 4°C
Wind Chill: 35°F , 2°C
Dew Point: 34°F , 1°C
Humidity: 81%
Barometer: 29.98 inHg , 1015.2 hPa
Clouds: Overcast
Visibility: 10 miles , 16 km
Cloud details: Overcast 2900 ft
2017/01/20 06:56 KHYA 200656Z AUTO 33004KT 10SM OVC029 04/01 A2998 RMK AO2 SLP151 T00440011
KMVY - Marthas Vineyard, Massachusetts, USA
Distance from station: SSE 37mi, 60km
Updated: 01/20/2017 1:53am
Overcast
Overcast
 Wind from WNW
Wind: WNW 3 mph , 6 km/h
Temperature: 37°F , 3°C
Dew Point: 30°F , -1°C
Humidity: 75%
Barometer: 30.00 inHg , 1015.9 hPa
Clouds: Overcast
Visibility: 10 miles , 16 km
Cloud details: Overcast 3200 ft
2017/01/20 06:53 KMVY 200653Z AUTO 29003KT 10SM OVC032 03/M01 A3000 RMK AO2 SLP158 T00331011 TSNO
 
KPVC - Provincetown, Massachusetts, USA
Distance from station: ENE 38mi, 61km
Updated: 01/20/2017 1:56am
Overcast
Overcast
 Wind from NE
Wind: NE 8 mph , 13 km/h
Temperature: 43°F , 6°C
Wind Chill: 38°F , 3°C
Dew Point: 36°F , 2°C
Humidity: 76%
Barometer: 29.99 inHg , 1015.6 hPa
Clouds: Overcast
Visibility: 10 miles , 16 km
Cloud details: Mostly cloudy 2000 ft
Overcast 2700 ft
2017/01/20 06:56 KPVC 200656Z AUTO 05007KT 10SM BKN020 OVC027 06/02 A2999 RMK AO2 SLP153 T00560017
KBED - Bedford, Massachusetts, USA
Distance from station: NNW 44mi, 72km
Updated: 01/20/2017 1:56am
Clear
Clear
 Wind from calm
Wind: Calm
Temperature: 28°F , -2°C
Dew Point: 25°F , -4°C
Humidity: 86%
Barometer: 29.99 inHg , 1015.6 hPa
Clouds: Clear
Visibility: 10 miles , 16 km
2017/01/20 06:56 KBED 200656Z AUTO 00000KT 10SM CLR M02/M04 A2999 RMK AO2 SLP172 T10221044
 
KBVY - Beverly, Massachusetts, USA
Distance from station: 0 48mi, 77km
Updated: 01/20/2017 2:17am
Overcast
Overcast
 Wind from NW
Wind: NW 5 mph , 7 km/h
Temperature: 34°F , 1°C
Wind Chill: 29°F , -2°C
Dew Point: 28°F , -2°C
Humidity: 81%
Barometer: 30.00 inHg , 1015.9 hPa
Clouds: Overcast
Visibility: 10 miles , 16 km
Cloud details: Overcast 2800 ft
2017/01/20 07:17 KBVY 200717Z AUTO 31004KT 10SM OVC028 01/M02 A3000 RMK AO2 T00111017
KCQX - Chatham, Massachusetts, USA
Distance from station: ESE 49mi, 80km
Updated: 01/20/2017 2:42am
Overcast
Overcast
 Wind from calm
Wind: Calm
Temperature: 39°F , 4°C
Dew Point: 34°F , 1°C
Humidity: 81%
Barometer: 29.99 inHg , 1015.6 hPa
Clouds: Overcast
Visibility: 10 miles , 16 km
Cloud details: Overcast 2900 ft
2017/01/20 07:42 KCQX 200742Z AUTO 00000KT 10SM OVC029 04/01 A2999 RMK AO2 T00390011